createdAt,value
2022-09-22T00:01:13.270Z,14.33
2022-09-22T00:03:42.841Z,14.03
2022-09-22T00:06:11.824Z,14.23
2022-09-22T00:08:41.175Z,14.47
2022-09-22T00:11:13.707Z,14.10
2022-09-22T00:13:41.929Z,14.40
2022-09-22T00:16:11.914Z,14.33
2022-09-22T00:18:39.291Z,14.17
2022-09-22T00:21:09.101Z,14.63
2022-09-22T00:23:37.037Z,16.47
2022-09-22T00:26:10.321Z,14.03
2022-09-22T00:28:38.502Z,14.30
2022-09-22T00:31:07.288Z,14.17
2022-09-22T00:33:37.886Z,14.40
2022-09-22T00:36:05.912Z,14.87
2022-09-22T00:38:33.914Z,14.27
2022-09-22T00:41:01.764Z,14.73
2022-09-22T00:43:30.433Z,14.43
2022-09-22T00:46:00.757Z,14.20
2022-09-22T00:48:29.615Z,14.20
2022-09-22T00:51:01.190Z,13.90
2022-09-22T00:53:29.481Z,14.47
2022-09-22T00:55:59.157Z,14.00
2022-09-22T00:58:31.288Z,14.47
2022-09-22T01:00:58.905Z,14.43
2022-09-22T01:03:29.872Z,13.83
2022-09-22T01:06:01.265Z,13.93
2022-09-22T01:08:29.642Z,13.47
2022-09-22T01:10:57.802Z,12.87
2022-09-22T01:13:28.710Z,13.30
2022-09-22T01:16:07.956Z,14.23
2022-09-22T01:18:43.377Z,14.33
2022-09-22T01:21:26.985Z,14.50
2022-09-22T01:24:12.061Z,14.60
2022-09-22T01:26:55.840Z,14.60
2022-09-22T01:29:38.941Z,14.60
2022-09-22T01:32:13.292Z,14.47
2022-09-22T01:34:44.797Z,14.50
2022-09-22T01:37:18.033Z,14.37
2022-09-22T01:39:47.201Z,14.90
2022-09-22T01:42:23.519Z,14.77
2022-09-22T01:44:53.924Z,14.53
2022-09-22T01:47:24.998Z,15.10
2022-09-22T01:49:58.062Z,15.30
2022-09-22T01:52:28.196Z,15.30
2022-09-22T01:54:58.064Z,15.17
2022-09-22T01:57:31.605Z,14.60
2022-09-22T02:00:04.186Z,14.40
2022-09-22T02:02:43.799Z,14.47
2022-09-22T02:05:15.005Z,14.07
2022-09-22T02:07:46.663Z,14.50
2022-09-22T02:10:17.665Z,14.70
2022-09-22T02:12:45.120Z,14.37
2022-09-22T02:15:26.575Z,15.57
2022-09-22T02:17:58.190Z,15.13
2022-09-22T02:20:25.735Z,16.60
2022-09-22T02:22:53.135Z,16.40
2022-09-22T02:25:21.065Z,16.00
2022-09-22T02:27:48.965Z,16.33
2022-09-22T02:30:16.349Z,15.60
2022-09-22T02:32:46.837Z,15.33
2022-09-22T02:35:15.834Z,15.33
2022-09-22T02:37:49.541Z,15.77
2022-09-22T02:40:23.190Z,15.27
2022-09-22T02:42:55.338Z,15.60
2022-09-22T02:45:25.144Z,15.17
2022-09-22T02:47:57.103Z,14.83
2022-09-22T02:50:28.120Z,15.10
2022-09-22T02:52:59.219Z,15.00
2022-09-22T02:55:26.633Z,15.20
2022-09-22T02:57:54.397Z,15.00
2022-09-22T03:00:22.236Z,14.57
2022-09-22T03:02:49.712Z,14.60
2022-09-22T03:05:17.304Z,14.73
2022-09-22T03:07:46.049Z,15.27
2022-09-22T03:10:13.489Z,15.30
2022-09-22T03:13:09.166Z,15.40
2022-09-22T03:15:34.561Z,15.13
2022-09-22T03:18:01.950Z,16.40
2022-09-22T03:20:29.404Z,14.93
2022-09-22T03:22:58.147Z,15.97
2022-09-22T03:25:25.508Z,16.53
2022-09-22T03:27:54.857Z,15.33
2022-09-22T03:30:22.304Z,16.03
2022-09-22T03:32:49.726Z,15.47
2022-09-22T03:35:17.210Z,16.17
2022-09-22T03:37:44.607Z,16.50
2022-09-22T03:40:13.548Z,16.57
2022-09-22T03:42:40.996Z,15.00
2022-09-22T03:45:10.192Z,15.20
2022-09-22T03:47:37.535Z,16.87
2022-09-22T03:50:05.732Z,16.50
2022-09-22T03:52:33.369Z,16.93
2022-09-22T03:55:02.809Z,16.50
2022-09-22T03:57:31.520Z,16.53
2022-09-22T03:59:58.934Z,17.07
2022-09-22T04:02:26.491Z,16.80
2022-09-22T04:04:53.868Z,17.03
2022-09-22T04:07:21.251Z,16.13
2022-09-22T04:09:48.601Z,16.97
2022-09-22T04:12:16.235Z,16.53
2022-09-22T04:14:44.984Z,17.37
2022-09-22T04:17:13.165Z,17.37
2022-09-22T04:19:40.557Z,17.40
2022-09-22T04:22:07.892Z,17.03
2022-09-22T04:24:35.316Z,20.27
2022-09-22T04:27:19.003Z,19.27
2022-09-22T04:29:48.986Z,16.47
2022-09-22T04:32:16.882Z,16.40
2022-09-22T04:34:44.245Z,16.27
2022-09-22T04:37:11.875Z,17.73
2022-09-22T04:39:39.352Z,17.13
2022-09-22T04:42:08.808Z,16.70
2022-09-22T04:44:36.194Z,16.57
2022-09-22T04:47:05.769Z,16.90
2022-09-22T04:49:33.240Z,16.17
2022-09-22T04:52:00.661Z,16.90
2022-09-22T04:54:28.044Z,17.20
2022-09-22T04:56:55.391Z,17.07
2022-09-22T04:59:22.758Z,16.77
2022-09-22T05:01:50.118Z,16.77
2022-09-22T05:04:19.602Z,17.57
2022-09-22T05:06:46.937Z,17.47
2022-09-22T05:09:14.604Z,17.13
2022-09-22T05:11:41.993Z,22.10
2022-09-22T05:14:09.477Z,18.00
2022-09-22T05:16:37.086Z,16.83
2022-09-22T05:19:04.526Z,16.80
2022-09-22T05:21:33.195Z,16.20
2022-09-22T05:24:00.814Z,16.87
2022-09-22T05:26:28.349Z,17.37
2022-09-22T05:28:56.019Z,15.93
2022-09-22T05:31:23.466Z,17.43
2022-09-22T05:33:51.006Z,15.93
2022-09-22T05:36:18.361Z,17.20
2022-09-22T05:38:47.095Z,16.80
2022-09-22T05:41:14.418Z,16.70
2022-09-22T05:43:41.757Z,17.77
2022-09-22T05:46:09.253Z,17.27
2022-09-22T05:48:36.672Z,19.33
2022-09-22T05:51:04.085Z,16.83
2022-09-22T05:53:31.501Z,16.80
2022-09-22T05:56:00.911Z,16.97
2022-09-22T05:58:28.280Z,15.90
2022-09-22T06:00:57.506Z,17.87
2022-09-22T06:03:24.916Z,17.73
2022-09-22T06:05:52.284Z,17.57
2022-09-22T06:08:19.616Z,17.83
2022-09-22T06:10:48.945Z,17.90
2022-09-22T06:13:17.727Z,19.33
2022-09-22T06:15:46.430Z,17.53
2022-09-22T06:18:15.303Z,21.27
2022-09-22T06:20:43.557Z,18.43
2022-09-22T06:23:12.521Z,21.00
2022-09-22T06:25:40.193Z,19.03
2022-09-22T06:28:09.561Z,18.97
2022-09-22T06:30:39.998Z,19.77
2022-09-22T06:33:08.024Z,18.30
2022-09-22T06:35:37.535Z,19.27
2022-09-22T06:38:05.990Z,18.57
2022-09-22T06:40:33.801Z,17.73
2022-09-22T06:43:07.538Z,17.77
2022-09-22T06:45:35.291Z,21.43
2022-09-22T06:48:09.488Z,26.47
2022-09-22T06:50:38.050Z,23.47
2022-09-22T06:53:08.161Z,19.27
2022-09-22T06:55:37.053Z,20.03
2022-09-22T06:58:04.839Z,20.03
2022-09-22T07:00:33.503Z,21.87
2022-09-22T07:03:08.541Z,22.10
2022-09-22T07:05:37.425Z,23.63
2022-09-22T07:08:05.621Z,24.63
2022-09-22T07:10:37.640Z,24.37
2022-09-22T07:13:06.211Z,24.67
2022-09-22T07:15:35.565Z,24.70
2022-09-22T07:18:03.042Z,25.10
2022-09-22T07:20:35.601Z,25.60
2022-09-22T07:23:03.008Z,26.07
2022-09-22T07:25:35.766Z,26.87
2022-09-22T07:28:04.901Z,26.73
2022-09-22T07:30:32.396Z,25.83
2022-09-22T07:33:01.641Z,25.50
2022-09-22T07:35:29.204Z,25.03
2022-09-22T07:38:03.209Z,24.37
2022-09-22T07:40:30.607Z,24.20
2022-09-22T07:42:58.058Z,24.53
2022-09-22T07:45:25.474Z,24.97
2022-09-22T07:48:10.452Z,23.80
2022-09-22T07:50:37.873Z,23.67
2022-09-22T07:53:06.824Z,23.23
2022-09-22T07:55:36.714Z,22.60
2022-09-22T07:58:04.201Z,23.77
2022-09-22T08:00:33.037Z,23.30
2022-09-22T08:03:01.412Z,22.70
2022-09-22T08:05:30.117Z,23.07
2022-09-22T08:07:58.259Z,22.33
2022-09-22T08:10:27.362Z,23.20
2022-09-22T08:12:55.112Z,23.90
2022-09-22T08:15:26.793Z,24.10
2022-09-22T08:17:57.401Z,23.60
2022-09-22T08:20:26.220Z,23.50
2022-09-22T08:22:53.833Z,23.17
2022-09-22T08:25:21.274Z,23.43
2022-09-22T08:27:50.001Z,23.20
2022-09-22T08:30:18.823Z,22.63
2022-09-22T08:32:46.733Z,23.27
2022-09-22T08:35:14.272Z,23.17
2022-09-22T08:37:43.692Z,22.60
2022-09-22T08:40:17.987Z,22.87
2022-09-22T08:42:45.522Z,23.17
2022-09-22T08:45:26.776Z,22.83
2022-09-22T08:48:13.608Z,22.63
2022-09-22T08:51:06.296Z,22.80
2022-09-22T08:53:35.154Z,22.77
2022-09-22T08:56:06.923Z,22.70
2022-09-22T08:58:44.573Z,21.73
2022-09-22T09:01:23.119Z,22.27
2022-09-22T09:03:57.648Z,19.67
2022-09-22T09:06:32.028Z,20.10
2022-09-22T09:09:10.530Z,20.30
2022-09-22T09:11:49.645Z,20.47
2022-09-22T09:14:30.308Z,20.03
2022-09-22T09:17:02.474Z,20.93
2022-09-22T09:19:34.307Z,20.17
2022-09-22T09:22:05.701Z,20.00
2022-09-22T09:27:26.956Z,19.23
2022-09-22T09:30:03.025Z,19.27
2022-09-22T09:32:37.703Z,19.20
2022-09-22T09:35:06.591Z,19.70
2022-09-22T09:37:34.914Z,19.33
2022-09-22T09:40:05.101Z,19.97
2022-09-22T09:42:36.163Z,18.73
2022-09-22T09:45:04.164Z,19.27
2022-09-22T09:47:50.047Z,19.20
2022-09-22T09:50:18.717Z,19.33
2022-09-22T09:52:47.298Z,18.83
2022-09-22T09:55:26.739Z,19.73
2022-09-22T09:58:09.335Z,19.27
2022-09-22T10:00:52.817Z,19.37
2022-09-22T10:03:28.506Z,19.00
2022-09-22T10:06:02.627Z,19.57
2022-09-22T10:08:36.349Z,18.77
2022-09-22T10:11:04.935Z,19.20
2022-09-22T10:13:36.331Z,19.17
2022-09-22T10:16:20.281Z,18.47
2022-09-22T10:18:50.229Z,19.73
2022-09-22T10:21:19.206Z,20.07
2022-09-22T10:23:47.584Z,19.70
2022-09-22T10:26:17.830Z,18.90
2022-09-22T10:28:47.117Z,19.80
2022-09-22T10:42:59.470Z,20.10
2022-09-22T10:45:36.938Z,19.83
2022-09-22T10:48:10.259Z,21.83
2022-09-22T10:51:03.486Z,21.30
2022-09-22T10:53:37.551Z,21.57
2022-09-22T10:56:12.353Z,21.80
2022-09-22T10:58:55.193Z,19.40
2022-09-22T11:01:33.785Z,19.97
2022-09-22T11:04:11.966Z,19.90
2022-09-22T11:07:24.073Z,19.87
2022-09-22T11:10:14.113Z,19.63
2022-09-22T11:12:47.906Z,19.60
2022-09-22T11:15:30.744Z,20.00
2022-09-22T11:18:21.511Z,21.60
2022-09-22T11:20:52.243Z,20.27
2022-09-22T11:23:46.479Z,20.13
2022-09-22T11:26:29.859Z,19.67
2022-09-22T11:29:10.973Z,19.73
2022-09-22T11:31:45.287Z,18.87
2022-09-22T11:34:34.132Z,19.10
2022-09-22T11:37:25.519Z,19.27
2022-09-22T11:40:08.556Z,19.07
2022-09-22T11:42:41.453Z,19.37
2022-09-22T11:45:16.993Z,19.17
2022-09-22T11:47:52.585Z,20.00
2022-09-22T11:50:40.780Z,19.50
2022-09-22T11:53:47.802Z,19.43
2022-09-22T11:56:32.994Z,19.60
2022-09-22T11:59:04.005Z,19.27
2022-09-22T12:01:33.273Z,19.20
2022-09-22T12:04:08.983Z,19.77
2022-09-22T12:06:41.172Z,19.57
2022-09-22T12:09:13.588Z,19.50
2022-09-22T12:11:41.821Z,19.60
2022-09-22T12:14:13.622Z,19.43
2022-09-22T12:16:45.674Z,19.60
2022-09-22T12:19:21.804Z,19.77
2022-09-22T12:21:53.458Z,19.40
2022-09-22T12:24:21.202Z,19.40
2022-09-22T12:26:49.972Z,20.10
2022-09-22T12:29:27.148Z,19.53
2022-09-22T12:31:56.594Z,18.93
2022-09-22T12:34:28.004Z,19.40
2022-09-22T12:36:59.310Z,19.17
2022-09-22T12:39:28.884Z,19.03
2022-09-22T12:41:59.981Z,19.07
2022-09-22T12:44:29.665Z,19.20
2022-09-22T12:47:02.175Z,19.20
2022-09-22T12:49:31.669Z,19.40
2022-09-22T12:51:59.222Z,19.50
2022-09-22T12:54:47.367Z,18.73
2022-09-22T12:57:27.583Z,18.20
2022-09-22T13:00:07.485Z,18.63
2022-09-22T13:02:42.881Z,17.93
2022-09-22T13:05:33.913Z,17.93
2022-09-22T13:08:01.674Z,18.00
2022-09-22T13:10:41.387Z,18.30
2022-09-22T13:13:19.756Z,17.50
2022-09-22T13:15:59.277Z,17.77
2022-09-22T13:18:31.577Z,17.83
2022-09-22T13:21:01.744Z,17.33
2022-09-22T13:23:29.756Z,17.48
2022-09-22T13:26:07.501Z,17.75
2022-09-22T13:28:35.056Z,17.77
2022-09-22T13:31:06.260Z,17.30
2022-09-22T13:33:35.626Z,17.60
2022-09-22T13:36:07.073Z,17.40
2022-09-22T13:38:36.898Z,17.50
2022-09-22T13:41:05.249Z,17.20
2022-09-22T13:43:35.083Z,17.67
2022-09-22T13:46:03.293Z,17.37
2022-09-22T13:48:33.881Z,17.80
2022-09-22T13:51:05.486Z,17.90
2022-09-22T13:53:33.373Z,18.17
2022-09-22T13:56:01.026Z,17.60
2022-09-22T13:58:34.369Z,17.77
2022-09-22T14:01:13.046Z,17.33
2022-09-22T14:03:41.090Z,17.60
2022-09-22T14:06:13.482Z,17.57
2022-09-22T14:08:41.611Z,17.80
2022-09-22T14:11:16.331Z,17.90
2022-09-22T14:13:45.127Z,17.70
2022-09-22T14:16:15.995Z,17.30
2022-09-22T14:18:46.605Z,17.87
2022-09-22T14:21:15.561Z,18.43
2022-09-22T14:23:44.916Z,17.80
2022-09-22T14:26:27.517Z,17.53
2022-09-22T14:28:57.687Z,17.47
2022-09-22T14:31:29.098Z,17.13
2022-09-22T14:33:57.236Z,17.30
2022-09-22T14:36:26.726Z,16.73
2022-09-22T14:39:08.194Z,16.80
2022-09-22T14:41:38.096Z,16.80
2022-09-22T14:44:27.248Z,16.80
2022-09-22T14:46:56.292Z,16.50
2022-09-22T14:49:37.357Z,16.70
2022-09-22T14:52:08.476Z,15.47
2022-09-22T14:54:36.013Z,16.83
2022-09-22T14:57:07.123Z,16.77
2022-09-22T14:59:54.318Z,16.97
2022-09-22T15:02:34.223Z,16.53
2022-09-22T15:05:03.595Z,16.77
2022-09-22T15:07:35.634Z,16.83
2022-09-22T15:10:06.401Z,16.53
2022-09-22T15:12:39.754Z,16.60
2022-09-22T15:15:19.307Z,17.03
2022-09-22T15:18:05.714Z,16.90
2022-09-22T15:20:42.431Z,16.43
2022-09-22T15:23:15.738Z,16.40
2022-09-22T15:25:43.612Z,16.50
2022-09-22T15:28:15.742Z,16.57
2022-09-22T15:30:44.550Z,16.27
2022-09-22T15:33:14.565Z,16.07
2022-09-22T15:35:44.531Z,15.53
2022-09-22T15:38:21.704Z,15.70
2022-09-22T15:40:49.119Z,15.97
2022-09-22T15:43:20.649Z,16.23
2022-09-22T15:45:49.379Z,16.50
2022-09-22T15:48:23.285Z,17.30
2022-09-22T15:50:51.017Z,16.47
2022-09-22T15:53:19.797Z,16.23
2022-09-22T15:55:47.839Z,16.37
2022-09-22T15:58:16.745Z,16.23
2022-09-22T16:00:44.193Z,16.60
2022-09-22T16:03:15.322Z,16.53
2022-09-22T16:05:44.647Z,16.70
2022-09-22T16:08:15.943Z,16.10
2022-09-22T16:10:45.342Z,16.50
2022-09-22T16:13:12.929Z,16.33
2022-09-22T16:15:40.495Z,15.70
2022-09-22T16:18:08.410Z,16.30
2022-09-22T16:20:37.889Z,16.43
2022-09-22T16:23:06.310Z,16.67
2022-09-22T16:25:33.923Z,16.73
2022-09-22T16:28:03.270Z,16.40
2022-09-22T16:30:30.622Z,16.70
2022-09-22T16:32:58.017Z,16.50
2022-09-22T16:35:25.501Z,15.97
2022-09-22T16:37:55.777Z,15.67
2022-09-22T16:40:24.688Z,16.47
2022-09-22T16:42:52.456Z,16.50
2022-09-22T16:45:41.155Z,16.63
2022-09-22T16:48:08.553Z,16.60
2022-09-22T16:50:37.553Z,17.40
2022-09-22T16:53:07.150Z,17.10
2022-09-22T16:55:37.315Z,16.67
2022-09-22T16:58:07.219Z,16.40
2022-09-22T17:00:39.207Z,16.43
2022-09-22T17:03:06.682Z,16.83
2022-09-22T17:05:34.198Z,16.80
2022-09-22T17:08:06.471Z,16.30
2022-09-22T17:10:35.472Z,17.07
2022-09-22T17:13:04.758Z,16.43
2022-09-22T17:15:35.712Z,16.03
2022-09-22T17:18:05.085Z,16.17
2022-09-22T17:20:32.478Z,16.30
2022-09-22T17:22:59.885Z,16.00
2022-09-22T17:25:28.905Z,16.07
2022-09-22T17:27:57.160Z,15.63
2022-09-22T17:30:24.843Z,15.80
2022-09-22T17:32:53.440Z,15.27
2022-09-22T17:35:22.169Z,14.70
2022-09-22T17:37:52.088Z,15.13
2022-09-22T17:40:19.571Z,15.30
2022-09-22T17:42:47.618Z,14.77
2022-09-22T17:45:15.654Z,15.17
2022-09-22T17:48:02.437Z,14.50
2022-09-22T17:50:49.043Z,13.90
2022-09-22T17:53:33.717Z,13.57
2022-09-22T17:56:04.986Z,14.20
2022-09-22T17:58:32.728Z,19.57
2022-09-22T18:01:00.145Z,13.77
2022-09-22T18:03:27.805Z,12.63
2022-09-22T18:05:57.249Z,13.30
2022-09-22T18:08:25.077Z,13.23
2022-09-22T18:10:52.405Z,12.60
2022-09-22T18:13:19.756Z,13.10
2022-09-22T18:15:47.274Z,13.00
2022-09-22T18:18:14.810Z,12.33
2022-09-22T18:20:42.733Z,12.27
2022-09-22T18:23:12.334Z,12.33
2022-09-22T18:25:41.236Z,11.50
2022-09-22T18:28:08.657Z,12.17
2022-09-22T18:30:40.064Z,11.47
2022-09-22T18:33:07.419Z,11.73
2022-09-22T18:35:34.825Z,12.17
2022-09-22T18:38:02.251Z,13.43
2022-09-22T18:40:32.312Z,10.67
2022-09-22T18:42:59.739Z,11.20
2022-09-22T18:45:27.727Z,10.43
2022-09-22T18:47:58.984Z,11.73
2022-09-22T18:50:26.958Z,12.10
2022-09-22T18:52:56.633Z,12.13
2022-09-22T18:55:24.016Z,10.87
2022-09-22T18:57:53.991Z,11.27
2022-09-22T19:00:22.084Z,11.67
2022-09-22T19:02:50.210Z,11.57
2022-09-22T19:05:18.009Z,11.53
2022-09-22T19:07:48.254Z,10.60
2022-09-22T19:10:18.763Z,10.60
2022-09-22T19:12:46.339Z,10.90
2022-09-22T19:15:18.484Z,9.73
2022-09-22T19:17:49.116Z,10.37
2022-09-22T19:20:22.321Z,9.40
2022-09-22T19:22:50.273Z,9.50
2022-09-22T19:25:19.977Z,9.33
2022-09-22T19:27:47.362Z,9.03
2022-09-22T19:30:20.548Z,9.87
2022-09-22T19:32:50.753Z,8.83
2022-09-22T19:35:18.349Z,9.97
2022-09-22T19:37:45.805Z,10.37
2022-09-22T19:40:18.461Z,10.13
2022-09-22T19:42:46.006Z,11.90
2022-09-22T19:45:13.549Z,9.80
2022-09-22T19:47:44.521Z,9.60
2022-09-22T19:50:11.937Z,10.63
2022-09-22T19:52:39.448Z,10.90
2022-09-22T19:55:07.877Z,11.00
2022-09-22T19:57:40.968Z,10.37
2022-09-22T20:00:10.177Z,11.40
2022-09-22T20:02:40.493Z,11.00
2022-09-22T20:05:17.673Z,11.10
2022-09-22T20:07:45.061Z,11.03
2022-09-22T20:10:13.204Z,11.50
2022-09-22T20:12:40.726Z,11.17
2022-09-22T20:15:08.832Z,10.83
2022-09-22T20:17:36.186Z,11.03
2022-09-22T20:20:03.625Z,12.50
2022-09-22T20:22:32.960Z,12.20
2022-09-22T20:25:01.950Z,13.57
2022-09-22T20:27:31.481Z,13.37
2022-09-22T20:30:02.372Z,13.60
2022-09-22T20:32:32.009Z,13.70
2022-09-22T20:34:59.790Z,14.30
2022-09-22T20:37:27.371Z,13.60
2022-09-22T20:39:57.384Z,16.90
2022-09-22T20:42:25.662Z,16.20
2022-09-22T20:44:53.314Z,17.30
2022-09-22T20:47:21.849Z,14.97
2022-09-22T20:49:51.916Z,12.60
2022-09-22T20:52:20.987Z,10.73
2022-09-22T20:54:49.232Z,10.70
2022-09-22T20:57:18.882Z,10.00
2022-09-22T20:59:47.419Z,10.70
2022-09-22T21:02:15.878Z,9.90
2022-09-22T21:04:43.634Z,10.50
2022-09-22T21:07:11.405Z,10.00
2022-09-22T21:09:56.931Z,10.70
2022-09-22T21:12:31.093Z,10.90
2022-09-22T21:14:59.261Z,10.97
2022-09-22T21:17:27.575Z,11.93
2022-09-22T21:19:57.008Z,13.20
2022-09-22T21:22:24.707Z,13.60
2022-09-22T21:24:52.491Z,14.47
2022-09-22T21:27:20.478Z,13.57
2022-09-22T21:29:51.703Z,12.97
2022-09-22T21:32:19.900Z,13.40
2022-09-22T21:34:47.466Z,13.93
2022-09-22T21:37:15.441Z,14.07
2022-09-22T21:39:43.112Z,14.40
2022-09-22T21:42:10.743Z,14.40
2022-09-22T21:44:39.062Z,14.20
2022-09-22T21:47:08.029Z,13.97
2022-09-22T21:49:35.501Z,14.37
2022-09-22T21:52:03.023Z,14.80
2022-09-22T21:54:31.042Z,14.93
2022-09-22T21:56:58.465Z,14.53
2022-09-22T21:59:25.874Z,14.17
2022-09-22T22:01:53.274Z,14.60
2022-09-22T22:04:22.037Z,14.43
2022-09-22T22:06:49.409Z,15.00
2022-09-22T22:09:18.631Z,14.57
2022-09-22T22:11:48.995Z,14.57
2022-09-22T22:14:18.334Z,15.20
2022-09-22T22:16:46.982Z,15.27
2022-09-22T22:19:17.055Z,14.93
2022-09-22T22:21:46.645Z,15.03
2022-09-22T22:24:28.412Z,15.13
2022-09-22T22:26:57.390Z,14.80
2022-09-22T22:29:26.933Z,13.83
2022-09-22T22:31:54.648Z,15.60
2022-09-22T22:34:25.466Z,15.37
2022-09-22T22:36:54.928Z,15.40
2022-09-22T22:39:22.753Z,16.03
2022-09-22T22:41:50.163Z,15.50
2022-09-22T22:44:18.835Z,16.13
2022-09-22T22:46:46.748Z,16.33
2022-09-22T22:49:14.568Z,16.20
2022-09-22T22:51:43.019Z,15.93
2022-09-22T22:54:12.526Z,16.13
2022-09-22T22:56:42.433Z,16.73
2022-09-22T22:59:11.223Z,17.30
2022-09-22T23:01:40.202Z,15.67
2022-09-22T23:04:08.824Z,15.50
2022-09-22T23:06:38.782Z,16.13
2022-09-22T23:09:08.113Z,15.63
2022-09-22T23:11:39.626Z,14.93
2022-09-22T23:14:11.255Z,14.43
2022-09-22T23:16:40.523Z,15.00
2022-09-22T23:19:10.778Z,13.77
2022-09-22T23:21:40.674Z,13.83
2022-09-22T23:24:08.881Z,13.57
2022-09-22T23:26:38.077Z,14.00
2022-09-22T23:29:06.612Z,14.53
2022-09-22T23:31:34.289Z,14.03
2022-09-22T23:34:01.701Z,13.73
2022-09-22T23:36:30.165Z,13.50
2022-09-22T23:39:01.815Z,13.43
2022-09-22T23:41:29.301Z,12.97
2022-09-22T23:43:58.062Z,13.17
2022-09-22T23:46:25.460Z,14.17
2022-09-22T23:48:53.262Z,13.83
2022-09-22T23:51:20.653Z,13.37
2022-09-22T23:53:48.167Z,13.73
2022-09-22T23:56:15.688Z,14.03
2022-09-22T23:58:43.092Z,14.30
